createdAt,value
2022-10-08T00:00:03.406Z,20.14
2022-10-08T00:00:14.423Z,20.14
2022-10-08T00:00:25.432Z,20.14
2022-10-08T00:00:37.345Z,20.14
2022-10-08T00:00:48.353Z,20.14
2022-10-08T00:00:59.366Z,20.14
2022-10-08T00:01:11.363Z,20.14
2022-10-08T00:01:22.378Z,20.13
2022-10-08T00:01:33.409Z,20.13
2022-10-08T00:01:44.446Z,20.13
2022-10-08T00:01:55.508Z,20.13
2022-10-08T00:02:07.479Z,20.14
2022-10-08T00:02:18.439Z,20.13
2022-10-08T00:02:29.424Z,20.13
2022-10-08T00:02:40.432Z,20.13
2022-10-08T00:02:51.434Z,20.12
2022-10-08T00:03:03.352Z,20.13
2022-10-08T00:03:14.370Z,20.13
2022-10-08T00:03:25.384Z,20.13
2022-10-08T00:03:36.397Z,20.12
2022-10-08T00:03:47.448Z,20.13
2022-10-08T00:03:59.466Z,20.14
2022-10-08T00:04:10.471Z,20.13
2022-10-08T00:04:22.398Z,20.12
2022-10-08T00:04:33.418Z,20.15
2022-10-08T00:04:45.385Z,20.13
2022-10-08T00:04:56.392Z,20.13
2022-10-08T00:05:07.405Z,20.12
2022-10-08T00:05:18.420Z,20.12
2022-10-08T00:05:29.422Z,20.12
2022-10-08T00:05:40.340Z,20.13
2022-10-08T00:05:51.351Z,20.14
2022-10-08T00:06:02.365Z,20.11
2022-10-08T00:06:13.366Z,20.12
2022-10-08T00:06:24.381Z,20.13
2022-10-08T00:06:35.387Z,20.12
2022-10-08T00:06:46.390Z,20.13
2022-10-08T00:06:58.393Z,20.12
2022-10-08T00:07:10.396Z,20.12
2022-10-08T00:07:21.412Z,20.13
2022-10-08T00:07:33.419Z,20.14
2022-10-08T00:07:44.416Z,20.14
2022-10-08T00:07:56.419Z,20.14
2022-10-08T00:08:08.341Z,20.14
2022-10-08T00:08:19.354Z,20.12
2022-10-08T00:08:30.368Z,20.12
2022-10-08T00:08:41.391Z,20.13
2022-10-08T00:08:52.388Z,20.14
2022-10-08T00:09:03.406Z,20.14
2022-10-08T00:09:14.420Z,20.14
2022-10-08T00:09:25.426Z,20.13
2022-10-08T00:09:37.338Z,20.14
2022-10-08T00:09:48.345Z,20.13
2022-10-08T00:09:59.364Z,20.14
2022-10-08T00:10:10.366Z,20.15
2022-10-08T00:10:21.373Z,20.13
2022-10-08T00:10:32.382Z,20.14
2022-10-08T00:10:43.400Z,20.14
2022-10-08T00:10:54.406Z,20.14
2022-10-08T00:11:05.419Z,20.13
2022-10-08T00:11:16.447Z,20.13
2022-10-08T00:11:28.346Z,20.14
2022-10-08T00:11:40.350Z,20.13
2022-10-08T00:11:52.351Z,20.14
2022-10-08T00:12:03.367Z,20.12
2022-10-08T00:12:14.389Z,20.12
2022-10-08T00:12:25.392Z,20.12
2022-10-08T00:12:36.399Z,20.12
2022-10-08T00:12:48.769Z,20.13
2022-10-08T00:13:00.362Z,20.12
2022-10-08T00:13:12.368Z,20.12
2022-10-08T00:13:23.383Z,20.12
2022-10-08T00:13:34.388Z,20.13
2022-10-08T00:13:46.394Z,20.12
2022-10-08T00:13:58.396Z,20.13
2022-10-08T00:14:10.395Z,20.12
2022-10-08T00:14:21.408Z,20.12
2022-10-08T00:14:32.411Z,20.12
2022-10-08T00:14:43.427Z,20.12
2022-10-08T00:14:54.424Z,20.12
2022-10-08T00:15:05.432Z,20.12
2022-10-08T00:15:16.333Z,20.12
2022-10-08T00:15:27.334Z,20.12
2022-10-08T00:15:38.334Z,20.12
2022-10-08T00:15:49.390Z,20.11
2022-10-08T00:16:00.439Z,20.13
2022-10-08T00:16:11.439Z,20.12
2022-10-08T00:16:22.497Z,20.12
2022-10-08T00:16:34.481Z,20.13
2022-10-08T00:16:46.389Z,20.12
2022-10-08T00:16:57.397Z,20.13
2022-10-08T00:17:08.406Z,20.12
2022-10-08T00:17:19.413Z,20.11
2022-10-08T00:17:30.418Z,20.12
2022-10-08T00:17:41.333Z,20.12
2022-10-08T00:17:52.340Z,20.12
2022-10-08T00:18:03.345Z,20.12
2022-10-08T00:18:14.354Z,20.10
2022-10-08T00:18:26.381Z,20.11
2022-10-08T00:18:37.382Z,20.12
2022-10-08T00:18:48.393Z,20.12
2022-10-08T00:18:59.402Z,20.11
2022-10-08T00:19:11.411Z,20.12
2022-10-08T00:19:22.441Z,20.12
2022-10-08T00:19:34.348Z,20.12
2022-10-08T00:19:46.341Z,20.11
2022-10-08T00:19:57.350Z,20.11
2022-10-08T00:20:09.355Z,20.11
2022-10-08T00:20:20.363Z,20.12
2022-10-08T00:20:32.373Z,20.10
2022-10-08T00:20:43.386Z,20.11
2022-10-08T00:20:54.394Z,20.11
2022-10-08T00:21:05.416Z,20.11
2022-10-08T00:21:16.425Z,20.10
2022-10-08T00:21:28.411Z,20.10
2022-10-08T00:21:40.422Z,20.11
2022-10-08T00:21:51.432Z,20.10
2022-10-08T00:22:02.339Z,20.11
2022-10-08T00:22:13.350Z,20.11
2022-10-08T00:22:24.356Z,20.09
2022-10-08T00:22:35.368Z,20.11
2022-10-08T00:22:46.711Z,20.11
2022-10-08T00:22:57.335Z,20.09
2022-10-08T00:23:08.353Z,20.11
2022-10-08T00:23:19.355Z,20.11
2022-10-08T00:23:30.374Z,20.10
2022-10-08T00:23:41.381Z,20.11
2022-10-08T00:23:52.391Z,20.11
2022-10-08T00:24:03.412Z,20.11
2022-10-08T00:24:14.421Z,20.11
2022-10-08T00:24:26.341Z,20.11
2022-10-08T00:24:37.346Z,20.11
2022-10-08T00:24:48.346Z,20.10
2022-10-08T00:25:00.353Z,20.11
2022-10-08T00:25:11.356Z,20.11
2022-10-08T00:25:22.364Z,20.11
2022-10-08T00:25:33.382Z,20.10
2022-10-08T00:25:44.393Z,20.10
2022-10-08T00:25:55.401Z,20.10
2022-10-08T00:26:06.405Z,20.10
2022-10-08T00:26:17.426Z,20.10
2022-10-08T00:26:29.430Z,20.11
2022-10-08T00:26:44.043Z,20.11
2022-10-08T00:26:52.428Z,20.10
2022-10-08T00:27:04.383Z,20.10
2022-10-08T00:27:15.351Z,20.10
2022-10-08T00:27:27.352Z,20.11
2022-10-08T00:27:39.357Z,20.10
2022-10-08T00:27:51.358Z,20.10
2022-10-08T00:28:02.438Z,20.09
2022-10-08T00:28:13.461Z,20.09
2022-10-08T00:28:25.460Z,20.10
2022-10-08T00:28:36.556Z,20.10
2022-10-08T00:28:48.354Z,20.09
2022-10-08T00:28:59.372Z,20.09
2022-10-08T00:29:10.381Z,20.10
2022-10-08T00:29:21.390Z,20.10
2022-10-08T00:29:32.400Z,20.11
2022-10-08T00:29:43.408Z,20.10
2022-10-08T00:29:54.416Z,20.10
2022-10-08T00:30:05.421Z,20.09
2022-10-08T00:30:17.346Z,20.10
2022-10-08T00:30:28.368Z,20.09
2022-10-08T00:30:39.376Z,20.09
2022-10-08T00:30:50.394Z,20.09
2022-10-08T00:31:01.483Z,20.08
2022-10-08T00:31:13.423Z,20.09
2022-10-08T00:31:24.458Z,20.09
2022-10-08T00:31:35.538Z,20.09
2022-10-08T00:31:47.513Z,20.09
2022-10-08T00:31:58.515Z,20.09
2022-10-08T00:32:10.430Z,20.09
2022-10-08T00:32:21.439Z,20.09
2022-10-08T00:32:33.356Z,20.09
2022-10-08T00:32:44.688Z,20.09
2022-10-08T00:32:59.811Z,20.08
2022-10-08T00:33:07.374Z,20.09
2022-10-08T00:33:19.390Z,20.08
2022-10-08T00:33:30.405Z,20.09
2022-10-08T00:33:42.422Z,20.09
2022-10-08T00:33:54.351Z,20.08
2022-10-08T00:34:06.370Z,20.09
2022-10-08T00:34:17.378Z,20.09
2022-10-08T00:34:28.405Z,20.08
2022-10-08T00:34:39.403Z,20.08
2022-10-08T00:34:51.413Z,20.08
2022-10-08T00:35:02.430Z,20.09
2022-10-08T00:35:14.435Z,20.08
2022-10-08T00:35:26.346Z,20.08
2022-10-08T00:35:37.350Z,20.07
2022-10-08T00:35:48.358Z,20.09
2022-10-08T00:35:59.364Z,20.08
2022-10-08T00:36:11.367Z,20.08
2022-10-08T00:36:22.368Z,20.09
2022-10-08T00:36:34.367Z,20.07
2022-10-08T00:36:45.377Z,20.10
2022-10-08T00:36:57.382Z,20.10
2022-10-08T00:37:08.401Z,20.09
2022-10-08T00:37:19.403Z,20.09
2022-10-08T00:37:30.410Z,20.10
2022-10-08T00:37:41.406Z,20.09
2022-10-08T00:37:52.410Z,20.09
2022-10-08T00:38:03.438Z,20.09
2022-10-08T00:38:15.355Z,20.09
2022-10-08T00:38:26.351Z,20.09
2022-10-08T00:38:37.375Z,20.09
2022-10-08T00:38:48.383Z,20.09
2022-10-08T00:38:59.404Z,20.09
2022-10-08T00:39:10.413Z,20.08
2022-10-08T00:39:21.423Z,20.08
2022-10-08T00:39:32.335Z,20.09
2022-10-08T00:39:43.355Z,20.08
2022-10-08T00:39:54.352Z,20.08
2022-10-08T00:40:06.360Z,20.09
2022-10-08T00:40:17.372Z,20.09
2022-10-08T00:40:29.380Z,20.08
2022-10-08T00:40:40.396Z,20.08
2022-10-08T00:40:52.398Z,20.09
2022-10-08T00:41:03.395Z,20.08
2022-10-08T00:41:14.416Z,20.09
2022-10-08T00:41:25.420Z,20.09
2022-10-08T00:41:37.433Z,20.08
2022-10-08T00:41:49.337Z,20.10
2022-10-08T00:42:00.344Z,20.09
2022-10-08T00:42:11.356Z,20.09
2022-10-08T00:42:22.361Z,20.08
2022-10-08T00:42:33.368Z,20.08
2022-10-08T00:42:44.724Z,20.08
2022-10-08T00:42:56.365Z,20.08
2022-10-08T00:43:08.367Z,20.08
2022-10-08T00:43:22.801Z,20.09
2022-10-08T00:43:32.364Z,20.08
2022-10-08T00:43:42.395Z,20.08
2022-10-08T00:43:53.397Z,20.08
2022-10-08T00:44:04.407Z,20.07
2022-10-08T00:44:15.418Z,20.08
2022-10-08T00:44:26.332Z,20.09
2022-10-08T00:44:37.345Z,20.09
2022-10-08T00:44:48.337Z,20.08
2022-10-08T00:44:59.345Z,20.09
2022-10-08T00:45:10.355Z,20.09
2022-10-08T00:45:22.392Z,20.08
2022-10-08T00:45:34.455Z,20.08
2022-10-08T00:45:45.483Z,20.08
2022-10-08T00:45:56.497Z,20.08
2022-10-08T00:46:08.437Z,20.08
2022-10-08T00:46:19.396Z,20.07
2022-10-08T00:46:30.415Z,20.09
2022-10-08T00:46:41.421Z,20.09
2022-10-08T00:46:52.431Z,20.07
2022-10-08T00:47:04.359Z,20.07
2022-10-08T00:47:15.367Z,20.10
2022-10-08T00:47:27.369Z,20.08
2022-10-08T00:47:39.376Z,20.07
2022-10-08T00:47:50.385Z,20.09
2022-10-08T00:48:01.396Z,20.08
2022-10-08T00:48:12.394Z,20.08
2022-10-08T00:48:24.397Z,20.08
2022-10-08T00:48:35.449Z,20.08
2022-10-08T00:48:47.358Z,20.07
2022-10-08T00:48:58.398Z,20.08
2022-10-08T00:49:10.402Z,20.08
2022-10-08T00:49:21.425Z,20.07
2022-10-08T00:49:32.437Z,20.07
2022-10-08T00:49:44.411Z,20.07
2022-10-08T00:49:56.419Z,20.06
2022-10-08T00:50:08.418Z,20.07
2022-10-08T00:50:20.420Z,20.06
2022-10-08T00:50:32.439Z,20.06
2022-10-08T00:50:44.344Z,20.06
2022-10-08T00:50:55.346Z,20.06
2022-10-08T00:51:06.349Z,20.05
2022-10-08T00:51:17.360Z,20.05
2022-10-08T00:51:29.366Z,20.05
2022-10-08T00:51:40.386Z,20.05
2022-10-08T00:51:51.390Z,20.07
2022-10-08T00:52:02.398Z,20.07
2022-10-08T00:52:13.408Z,20.06
2022-10-08T00:52:24.414Z,20.05
2022-10-08T00:52:36.418Z,20.05
2022-10-08T00:52:48.686Z,20.06
2022-10-08T00:53:00.412Z,20.06
2022-10-08T00:53:11.419Z,20.05
2022-10-08T00:53:22.428Z,20.06
2022-10-08T00:53:34.354Z,20.05
2022-10-08T00:53:46.363Z,20.05
2022-10-08T00:53:57.373Z,20.04
2022-10-08T00:54:09.385Z,20.06
2022-10-08T00:54:20.389Z,20.05
2022-10-08T00:54:31.400Z,20.05
2022-10-08T00:54:42.415Z,20.05
2022-10-08T00:54:53.418Z,20.05
2022-10-08T00:55:04.338Z,20.05
2022-10-08T00:55:15.357Z,20.05
2022-10-08T00:55:26.370Z,20.05
2022-10-08T00:55:42.513Z,20.05
2022-10-08T00:55:50.366Z,20.05
2022-10-08T00:56:00.368Z,20.04
2022-10-08T00:56:12.379Z,20.03
2022-10-08T00:56:23.380Z,20.05
2022-10-08T00:56:34.381Z,20.04
2022-10-08T00:56:45.388Z,20.05
2022-10-08T00:56:56.398Z,20.05
2022-10-08T00:57:07.401Z,20.04
2022-10-08T00:57:18.413Z,20.05
2022-10-08T00:57:29.418Z,20.05
2022-10-08T00:57:40.427Z,20.05
2022-10-08T00:57:52.430Z,20.04
2022-10-08T00:58:04.353Z,20.04
2022-10-08T00:58:15.363Z,20.04
2022-10-08T00:58:26.372Z,20.04
2022-10-08T00:58:37.397Z,20.05
2022-10-08T00:58:48.405Z,20.04
2022-10-08T00:59:00.414Z,20.04
2022-10-08T00:59:11.414Z,20.05
2022-10-08T00:59:22.432Z,20.04
2022-10-08T00:59:34.429Z,20.04
2022-10-08T00:59:45.339Z,20.05
2022-10-08T00:59:56.352Z,20.05
2022-10-08T01:00:07.353Z,20.05
2022-10-08T01:00:18.371Z,20.05
2022-10-08T01:00:30.461Z,20.05
2022-10-08T01:00:41.437Z,20.05
2022-10-08T01:00:53.492Z,20.04
2022-10-08T01:01:05.420Z,20.05
2022-10-08T01:01:16.499Z,20.04
2022-10-08T01:01:28.466Z,20.04
2022-10-08T01:01:40.447Z,20.05
2022-10-08T01:01:51.455Z,20.05
2022-10-08T01:02:02.513Z,20.06
2022-10-08T01:02:14.492Z,20.05
2022-10-08T01:02:26.433Z,20.04
2022-10-08T01:02:37.420Z,20.05
2022-10-08T01:02:48.851Z,20.06
2022-10-08T01:03:00.384Z,20.05
2022-10-08T01:03:11.388Z,20.05
2022-10-08T01:03:22.396Z,20.03
2022-10-08T01:03:33.412Z,20.04
2022-10-08T01:03:44.434Z,20.05
2022-10-08T01:03:55.333Z,20.04
2022-10-08T01:04:06.438Z,20.04
2022-10-08T01:04:18.351Z,20.03
2022-10-08T01:04:29.356Z,20.04
2022-10-08T01:04:40.394Z,20.03
2022-10-08T01:04:51.387Z,20.04
2022-10-08T01:05:02.408Z,20.04
2022-10-08T01:05:13.424Z,20.04
2022-10-08T01:05:24.427Z,20.03
2022-10-08T01:05:35.335Z,20.04
2022-10-08T01:05:46.339Z,20.03
2022-10-08T01:05:57.351Z,20.05
2022-10-08T01:06:08.355Z,20.05
2022-10-08T01:06:19.357Z,20.04
2022-10-08T01:06:30.377Z,20.04
2022-10-08T01:06:42.391Z,20.03
2022-10-08T01:06:53.405Z,20.03
2022-10-08T01:07:05.404Z,20.04
2022-10-08T01:07:16.428Z,20.03
2022-10-08T01:07:27.432Z,20.04
2022-10-08T01:07:39.342Z,20.05
2022-10-08T01:07:50.351Z,20.04
2022-10-08T01:08:01.352Z,20.04
2022-10-08T01:08:12.358Z,20.05
2022-10-08T01:08:23.369Z,20.05
2022-10-08T01:08:34.384Z,20.05
2022-10-08T01:08:45.411Z,20.05
2022-10-08T01:08:56.420Z,20.04
2022-10-08T01:09:07.428Z,20.04
2022-10-08T01:09:19.527Z,20.04
2022-10-08T01:09:30.428Z,20.03
2022-10-08T01:09:41.431Z,20.04
2022-10-08T01:09:53.362Z,20.03
2022-10-08T01:10:04.365Z,20.03
2022-10-08T01:10:15.365Z,20.04
2022-10-08T01:10:26.369Z,20.06
2022-10-08T01:10:37.383Z,20.04
2022-10-08T01:10:48.386Z,20.04
2022-10-08T01:10:59.396Z,20.04
2022-10-08T01:11:10.400Z,20.04
2022-10-08T01:11:21.413Z,20.04
2022-10-08T01:11:32.420Z,20.04
2022-10-08T01:11:44.425Z,20.04
2022-10-08T01:11:55.436Z,20.04
2022-10-08T01:12:07.349Z,20.04
2022-10-08T01:12:19.356Z,20.04
2022-10-08T01:12:30.365Z,20.05
2022-10-08T01:12:42.369Z,20.04
2022-10-08T01:12:53.375Z,20.04
2022-10-08T01:13:04.384Z,20.04
2022-10-08T01:13:15.394Z,20.05
2022-10-08T01:13:26.401Z,20.05
2022-10-08T01:13:37.413Z,20.03
2022-10-08T01:13:48.435Z,20.04
2022-10-08T01:14:00.362Z,20.03
2022-10-08T01:14:11.370Z,20.03
2022-10-08T01:14:22.367Z,20.03
2022-10-08T01:14:33.383Z,20.03
2022-10-08T01:14:44.382Z,20.04
2022-10-08T01:14:56.391Z,20.03
2022-10-08T01:15:07.385Z,20.03
2022-10-08T01:15:19.395Z,20.03
2022-10-08T01:15:30.409Z,20.03
2022-10-08T01:15:41.413Z,20.04
2022-10-08T01:15:52.433Z,20.02
2022-10-08T01:16:03.432Z,20.03
2022-10-08T01:16:14.469Z,20.03
2022-10-08T01:16:25.507Z,20.03
2022-10-08T01:16:37.488Z,20.03
2022-10-08T01:16:49.363Z,20.04
2022-10-08T01:17:00.368Z,20.04
2022-10-08T01:17:11.389Z,20.04
2022-10-08T01:17:22.401Z,20.04
2022-10-08T01:17:33.409Z,20.03
2022-10-08T01:17:44.417Z,20.03
2022-10-08T01:17:55.429Z,20.03
2022-10-08T01:18:07.346Z,20.04
2022-10-08T01:18:18.356Z,20.04
2022-10-08T01:18:29.381Z,20.05
2022-10-08T01:18:40.375Z,20.03
2022-10-08T01:18:51.404Z,20.03
2022-10-08T01:19:02.415Z,20.03
2022-10-08T01:19:13.431Z,20.03
2022-10-08T01:19:24.351Z,20.03
2022-10-08T01:19:35.347Z,20.03
2022-10-08T01:19:47.377Z,20.03
2022-10-08T01:19:58.369Z,20.04
2022-10-08T01:20:09.375Z,20.04
2022-10-08T01:20:21.382Z,20.04
2022-10-08T01:20:33.388Z,20.03
2022-10-08T01:20:44.409Z,20.03
2022-10-08T01:20:56.417Z,20.03
2022-10-08T01:21:07.421Z,20.02
2022-10-08T01:21:18.426Z,20.02
2022-10-08T01:21:29.433Z,20.03
2022-10-08T01:21:41.410Z,20.03
2022-10-08T01:21:52.410Z,20.04
2022-10-08T01:22:04.422Z,20.03
2022-10-08T01:22:16.421Z,20.03
2022-10-08T01:22:28.424Z,20.02
2022-10-08T01:22:39.335Z,20.03
2022-10-08T01:22:51.354Z,20.03
2022-10-08T01:23:02.362Z,20.03
2022-10-08T01:23:13.368Z,20.04
2022-10-08T01:23:24.370Z,20.02
2022-10-08T01:23:35.380Z,20.03
2022-10-08T01:23:46.416Z,20.03
2022-10-08T01:23:57.424Z,20.03
2022-10-08T01:24:08.432Z,20.03
2022-10-08T01:24:20.340Z,20.01
2022-10-08T01:24:31.357Z,20.02
2022-10-08T01:24:43.361Z,20.03
2022-10-08T01:24:54.387Z,20.03
2022-10-08T01:25:05.403Z,20.03
2022-10-08T01:25:17.404Z,20.03
2022-10-08T01:25:28.422Z,20.03
2022-10-08T01:25:40.348Z,20.03
2022-10-08T01:25:52.348Z,20.03
2022-10-08T01:26:04.350Z,20.03
2022-10-08T01:26:15.354Z,20.02
2022-10-08T01:26:26.369Z,20.03
2022-10-08T01:26:38.376Z,20.02
2022-10-08T01:26:49.378Z,20.01
2022-10-08T01:27:01.384Z,20.02
2022-10-08T01:27:12.392Z,20.00
2022-10-08T01:27:23.402Z,20.01
2022-10-08T01:27:34.409Z,20.01
2022-10-08T01:27:46.414Z,20.01
2022-10-08T01:27:57.428Z,20.01
2022-10-08T01:28:08.406Z,20.01
2022-10-08T01:28:19.407Z,20.03
2022-10-08T01:28:30.436Z,20.02
2022-10-08T01:28:41.467Z,20.02
2022-10-08T01:28:52.349Z,20.03
2022-10-08T01:29:03.348Z,20.02
2022-10-08T01:29:14.357Z,20.01
2022-10-08T01:29:25.373Z,20.03
2022-10-08T01:29:36.383Z,20.02
2022-10-08T01:29:47.388Z,20.01
2022-10-08T01:29:58.396Z,20.02
2022-10-08T01:30:09.409Z,20.01
2022-10-08T01:30:21.411Z,20.02
2022-10-08T01:30:33.414Z,20.02
2022-10-08T01:30:44.436Z,20.01
2022-10-08T01:30:56.371Z,20.02
2022-10-08T01:31:08.454Z,20.02
2022-10-08T01:31:19.537Z,20.01
2022-10-08T01:31:31.476Z,20.01
2022-10-08T01:31:42.522Z,20.02
2022-10-08T01:31:54.472Z,20.02
2022-10-08T01:32:06.346Z,20.02
2022-10-08T01:32:17.362Z,20.02
2022-10-08T01:32:28.373Z,20.01
2022-10-08T01:32:40.373Z,20.01
2022-10-08T01:32:51.387Z,20.01
2022-10-08T01:33:02.391Z,20.00
2022-10-08T01:33:13.424Z,20.00
2022-10-08T01:33:25.414Z,20.01
2022-10-08T01:33:36.429Z,20.00
2022-10-08T01:33:48.446Z,20.00
2022-10-08T01:34:00.381Z,20.00
2022-10-08T01:34:12.368Z,19.99
2022-10-08T01:34:23.384Z,20.01
2022-10-08T01:34:34.405Z,20.01
2022-10-08T01:34:45.413Z,20.00
2022-10-08T01:34:56.456Z,20.01
2022-10-08T01:35:08.353Z,20.02
2022-10-08T01:35:19.362Z,19.99
2022-10-08T01:35:30.360Z,20.00
2022-10-08T01:35:41.378Z,20.01
2022-10-08T01:35:52.385Z,20.01
2022-10-08T01:36:03.399Z,20.01
2022-10-08T01:36:15.406Z,20.00
2022-10-08T01:36:26.421Z,20.00
2022-10-08T01:36:37.423Z,20.00
2022-10-08T01:36:49.424Z,20.00
2022-10-08T01:37:01.426Z,20.00
2022-10-08T01:37:13.344Z,20.02
2022-10-08T01:37:24.369Z,20.00
2022-10-08T01:37:36.376Z,20.01
2022-10-08T01:37:47.388Z,20.01
2022-10-08T01:37:58.396Z,19.99
2022-10-08T01:38:09.402Z,20.01
2022-10-08T01:38:20.426Z,19.99
2022-10-08T01:38:31.426Z,20.01
2022-10-08T01:38:42.436Z,20.00
2022-10-08T01:38:54.383Z,19.99
2022-10-08T01:39:05.390Z,20.00
2022-10-08T01:39:17.391Z,20.00
2022-10-08T01:39:28.410Z,20.00
2022-10-08T01:39:39.427Z,20.00
2022-10-08T01:39:50.431Z,20.01
2022-10-08T01:40:02.352Z,19.99
2022-10-08T01:40:13.369Z,20.00
2022-10-08T01:40:24.369Z,19.99
2022-10-08T01:40:36.377Z,20.01
2022-10-08T01:40:47.387Z,20.00
2022-10-08T01:40:59.398Z,20.00
2022-10-08T01:41:10.417Z,19.99
2022-10-08T01:41:21.432Z,19.99
2022-10-08T01:41:33.358Z,19.98
2022-10-08T01:41:45.368Z,20.00
2022-10-08T01:41:56.380Z,19.99
2022-10-08T01:42:08.385Z,19.99
2022-10-08T01:42:19.405Z,19.99
2022-10-08T01:42:30.407Z,19.99
2022-10-08T01:42:41.411Z,19.99
2022-10-08T01:42:52.427Z,19.98
2022-10-08T01:43:04.349Z,19.99
2022-10-08T01:43:15.373Z,19.99
2022-10-08T01:43:26.387Z,19.99
2022-10-08T01:43:37.389Z,19.98
2022-10-08T01:43:48.412Z,20.00
2022-10-08T01:43:59.416Z,19.99
2022-10-08T01:44:10.424Z,19.98
2022-10-08T01:44:22.432Z,19.97
2022-10-08T01:44:33.432Z,19.98
2022-10-08T01:44:45.347Z,19.97
2022-10-08T01:44:56.358Z,19.98
2022-10-08T01:45:07.368Z,19.97
2022-10-08T01:45:18.371Z,19.98
2022-10-08T01:45:29.465Z,19.97
2022-10-08T01:45:40.391Z,19.98
2022-10-08T01:45:51.446Z,19.99
2022-10-08T01:46:02.460Z,19.99
2022-10-08T01:46:13.483Z,19.97
2022-10-08T01:46:25.347Z,19.97
2022-10-08T01:46:37.352Z,19.97
2022-10-08T01:46:48.368Z,19.97
2022-10-08T01:46:59.374Z,19.98
2022-10-08T01:47:11.381Z,19.98
2022-10-08T01:47:22.381Z,19.97
2022-10-08T01:47:33.386Z,19.97
2022-10-08T01:47:45.412Z,19.97
2022-10-08T01:47:56.431Z,19.98
2022-10-08T01:48:08.346Z,19.97
2022-10-08T01:48:19.360Z,19.98
2022-10-08T01:48:30.368Z,19.99
2022-10-08T01:48:41.373Z,19.98
2022-10-08T01:48:52.400Z,19.97
2022-10-08T01:49:03.403Z,19.96
2022-10-08T01:49:15.407Z,19.97
2022-10-08T01:49:26.411Z,19.96
2022-10-08T01:49:37.422Z,19.98
2022-10-08T01:49:48.434Z,19.99
2022-10-08T01:49:59.358Z,19.97
2022-10-08T01:50:11.351Z,19.97
2022-10-08T01:50:22.363Z,19.97
2022-10-08T01:50:33.364Z,19.98
2022-10-08T01:50:45.365Z,19.96
2022-10-08T01:50:56.370Z,19.97
2022-10-08T01:51:07.379Z,19.97
2022-10-08T01:51:18.383Z,19.98
2022-10-08T01:51:29.402Z,19.97
2022-10-08T01:51:41.401Z,19.97
2022-10-08T01:51:53.403Z,19.97
2022-10-08T01:52:04.407Z,19.98
2022-10-08T01:52:15.408Z,19.97
2022-10-08T01:52:26.421Z,19.96
2022-10-08T01:52:37.426Z,19.97
2022-10-08T01:52:49.117Z,19.98
2022-10-08T01:53:00.420Z,19.98
2022-10-08T01:53:11.424Z,19.97
2022-10-08T01:53:23.346Z,19.98
2022-10-08T01:53:34.347Z,19.99
2022-10-08T01:53:45.349Z,19.97
2022-10-08T01:53:56.370Z,19.97
2022-10-08T01:54:07.369Z,19.97
2022-10-08T01:54:18.375Z,19.97
2022-10-08T01:54:30.374Z,19.98
2022-10-08T01:54:41.389Z,19.97
2022-10-08T01:54:53.389Z,19.97
2022-10-08T01:55:04.391Z,19.97
2022-10-08T01:55:15.407Z,19.96
2022-10-08T01:55:26.404Z,19.97
2022-10-08T01:55:37.402Z,19.96
2022-10-08T01:55:49.410Z,19.97
2022-10-08T01:56:00.413Z,19.97
2022-10-08T01:56:11.417Z,19.97
2022-10-08T01:56:22.435Z,19.96
2022-10-08T01:56:33.336Z,19.95
2022-10-08T01:56:44.347Z,19.96
2022-10-08T01:56:55.352Z,19.96
2022-10-08T01:57:06.351Z,19.95
2022-10-08T01:57:18.354Z,19.96
2022-10-08T01:57:29.372Z,19.96
2022-10-08T01:57:40.378Z,19.96
2022-10-08T01:57:51.376Z,19.95
2022-10-08T01:58:02.379Z,19.94
2022-10-08T01:58:13.398Z,19.94
2022-10-08T01:58:24.393Z,19.95
2022-10-08T01:58:35.394Z,19.95
2022-10-08T01:58:47.419Z,19.94
2022-10-08T01:58:58.427Z,19.95
2022-10-08T01:59:09.427Z,19.95
2022-10-08T01:59:20.333Z,19.95
2022-10-08T01:59:31.351Z,19.95
2022-10-08T01:59:42.372Z,19.95
2022-10-08T01:59:53.374Z,19.94
2022-10-08T02:00:04.388Z,19.94
2022-10-08T02:00:16.399Z,19.95
2022-10-08T02:00:27.412Z,19.94
2022-10-08T02:00:38.418Z,19.94
2022-10-08T02:00:49.494Z,19.94
2022-10-08T02:01:01.427Z,19.94
2022-10-08T02:01:12.480Z,19.94
2022-10-08T02:01:24.480Z,19.94
2022-10-08T02:01:36.504Z,19.94
2022-10-08T02:01:47.407Z,19.95
2022-10-08T02:01:58.444Z,19.94
2022-10-08T02:02:09.542Z,19.94
2022-10-08T02:02:21.479Z,19.95
2022-10-08T02:02:32.430Z,19.94
2022-10-08T02:02:44.790Z,19.94
2022-10-08T02:02:56.349Z,19.95
2022-10-08T02:03:07.371Z,19.95
2022-10-08T02:03:18.380Z,19.95
2022-10-08T02:03:29.388Z,19.95
2022-10-08T02:03:40.394Z,19.95
2022-10-08T02:03:51.423Z,19.95
2022-10-08T02:04:02.427Z,19.94
2022-10-08T02:04:14.343Z,19.95
2022-10-08T02:04:25.349Z,19.94
2022-10-08T02:04:36.366Z,19.95
2022-10-08T02:04:47.377Z,19.95
2022-10-08T02:04:58.389Z,19.94
2022-10-08T02:05:09.416Z,19.94
2022-10-08T02:05:20.422Z,19.94
2022-10-08T02:05:31.428Z,19.94
2022-10-08T02:05:43.343Z,19.94
2022-10-08T02:05:54.360Z,19.95
2022-10-08T02:06:05.365Z,19.94
2022-10-08T02:06:16.370Z,19.93
2022-10-08T02:06:27.376Z,19.93
2022-10-08T02:06:38.379Z,19.94
2022-10-08T02:06:49.403Z,19.93
2022-10-08T02:07:00.412Z,19.95
2022-10-08T02:07:11.412Z,19.95
2022-10-08T02:07:23.412Z,19.94
2022-10-08T02:07:35.413Z,19.93
2022-10-08T02:07:46.423Z,19.95
2022-10-08T02:07:58.341Z,19.97
2022-10-08T02:08:09.365Z,19.94
2022-10-08T02:08:20.356Z,19.94
2022-10-08T02:08:31.367Z,19.94
2022-10-08T02:08:42.384Z,19.94
2022-10-08T02:08:53.407Z,19.94
2022-10-08T02:09:04.415Z,19.94
2022-10-08T02:09:15.430Z,19.95
2022-10-08T02:09:26.434Z,19.93
2022-10-08T02:09:38.353Z,19.94
2022-10-08T02:09:49.353Z,19.94
2022-10-08T02:10:00.361Z,19.93
2022-10-08T02:10:11.383Z,19.93
2022-10-08T02:10:22.386Z,19.94
2022-10-08T02:10:33.396Z,19.94
2022-10-08T02:10:44.405Z,19.94
2022-10-08T02:10:56.409Z,19.93
2022-10-08T02:11:08.419Z,19.94
2022-10-08T02:11:19.333Z,19.93
2022-10-08T02:11:30.341Z,19.93
2022-10-08T02:11:41.354Z,19.93
2022-10-08T02:11:52.368Z,19.94
2022-10-08T02:12:03.383Z,19.93
2022-10-08T02:12:14.431Z,19.93
2022-10-08T02:12:25.402Z,19.94
2022-10-08T02:12:37.417Z,19.93
2022-10-08T02:12:48.776Z,19.93
2022-10-08T02:13:00.401Z,19.94
2022-10-08T02:13:11.421Z,19.93
2022-10-08T02:13:22.426Z,19.93
2022-10-08T02:13:34.437Z,19.92
2022-10-08T02:13:46.352Z,19.94
2022-10-08T02:13:57.366Z,19.93
2022-10-08T02:14:08.375Z,19.94
2022-10-08T02:14:19.397Z,19.93
2022-10-08T02:14:30.408Z,19.94
2022-10-08T02:14:41.420Z,19.93
2022-10-08T02:14:52.427Z,19.93
2022-10-08T02:15:04.344Z,19.93
2022-10-08T02:15:15.351Z,19.93
2022-10-08T02:15:26.363Z,19.94
2022-10-08T02:15:37.372Z,19.93
2022-10-08T02:15:48.381Z,19.93
2022-10-08T02:16:00.390Z,19.92
2022-10-08T02:16:11.488Z,19.93
2022-10-08T02:16:23.395Z,19.93
2022-10-08T02:16:34.437Z,19.93
2022-10-08T02:16:45.468Z,19.93
2022-10-08T02:16:57.352Z,19.92
2022-10-08T02:17:08.385Z,19.91
2022-10-08T02:17:19.410Z,19.92
2022-10-08T02:17:30.424Z,19.92
2022-10-08T02:17:42.355Z,19.93
2022-10-08T02:17:53.363Z,19.93
2022-10-08T02:18:04.369Z,19.91
2022-10-08T02:18:15.381Z,19.90
2022-10-08T02:18:26.385Z,19.90
2022-10-08T02:18:38.387Z,19.91
2022-10-08T02:18:49.393Z,19.92
2022-10-08T02:19:00.422Z,19.93
2022-10-08T02:19:11.420Z,19.92
2022-10-08T02:19:23.346Z,19.92
2022-10-08T02:19:34.371Z,19.93
2022-10-08T02:19:45.387Z,19.92
2022-10-08T02:19:56.392Z,19.93
2022-10-08T02:20:07.406Z,19.93
2022-10-08T02:20:18.441Z,19.92
2022-10-08T02:20:29.435Z,19.93
2022-10-08T02:20:41.372Z,19.92
2022-10-08T02:20:52.381Z,19.92
2022-10-08T02:21:03.395Z,19.93
2022-10-08T02:21:14.404Z,19.94
2022-10-08T02:21:25.419Z,19.94
2022-10-08T02:21:36.435Z,19.94
2022-10-08T02:21:48.353Z,19.95
2022-10-08T02:21:59.373Z,19.93
2022-10-08T02:22:10.366Z,19.92
2022-10-08T02:22:21.379Z,19.94
2022-10-08T02:22:32.392Z,19.93
2022-10-08T02:22:43.538Z,19.93
2022-10-08T02:22:55.369Z,19.93
2022-10-08T02:23:06.377Z,19.93
2022-10-08T02:23:17.385Z,19.92
2022-10-08T02:23:28.389Z,19.93
2022-10-08T02:23:39.399Z,19.93
2022-10-08T02:23:50.406Z,19.93
2022-10-08T02:24:01.426Z,19.93
2022-10-08T02:24:12.430Z,19.93
2022-10-08T02:24:24.347Z,19.93
2022-10-08T02:24:35.346Z,19.93
2022-10-08T02:24:47.345Z,19.92
2022-10-08T02:24:58.350Z,19.92
2022-10-08T02:25:09.362Z,19.92